• Join FlightAware (Why Join?)
  • Login
  • US Flag 
08:01AM EDT


 

Airport Tracker/Info


-or-


 

Live Flight TrackerFlight Track Log ✈ SWA2236 ✈ 16-Jul-2013 ✈ KDAL - KABQ

Flight Track Log - Related Links

Times and Time Zones

All times are in EDT time to prevent confusion due to time zone crossing. See the SWA2236 flight status page for this flight to view local times or setup timezone preferences in your user account.

Time Position Orientation Groundspeed Altitude Reporting Facility
EDT Latitude Longitude Course Direction KTS MPH feet Rate Location/Type
07:22AM 32.8333 -96.8333 132° Southeast 129 148 1,700  Level Dallas / Fort Worth TRACON
07:23AM 32.7833 -96.7667 132° Southeast 198 228 6,000 2,460 Climbing Dallas / Fort Worth TRACON
07:24AM 32.7167 -96.7500 168° South 274 315 8,000 900 Climbing Dallas / Fort Worth TRACON
07:25AM 32.6500 -96.8000 212° Southwest 279 321 8,000 1,440 Level Dallas / Fort Worth TRACON
07:27AM 32.6844 -96.9889 282° West 313 360 12,400 2,520 Climbing Fort Worth Center
07:28AM 32.7161 -97.1147 287° West 351 404 15,500 2,700 Climbing Fort Worth Center
07:29AM 32.7433 -97.2306 286° West 366 421 17,900 2,460 Climbing Fort Worth Center
07:30AM 32.7750 -97.3592 286° West 391 450 20,500 2,220 Climbing Fort Worth Center
07:31AM 32.8061 -97.4875 286° West 396 456 22,400 1,800 Climbing Fort Worth Center
07:32AM 32.8353 -97.6111 286° West 409 471 24,100 1,620 Climbing Fort Worth Center
07:33AM 32.8664 -97.7572 284° West 430 495 25,700 1,680 Climbing Fort Worth Center
07:34AM 32.8678 -97.9056 271° West 448 516 27,500 1,740 Climbing Fort Worth Center
07:35AM 32.8650 -98.0539 269° West 453 521 29,200 1,800 Climbing Fort Worth Center
07:36AM 32.8622 -98.2097 269° West 465 535 31,100 2,040 Climbing Fort Worth Center
07:37AM 32.8800 -98.3533 278° West 460 529 33,300 1,980 Climbing Fort Worth Center
07:38AM 32.9331 -98.4925 294° West 431 496 35,100 1,620 Climbing Fort Worth Center
07:39AM 32.9861 -98.6269 295° West 432 497 36,600 1,320 Climbing Fort Worth Center
07:40AM 33.0369 -98.7589 295° West 439 505 37,800 900 Climbing Fort Worth Center
07:41AM 33.0897 -98.8936 295° West 439 505 38,500 780 Climbing Fort Worth Center
07:42AM 33.1403 -99.0286 294° West 445 512 39,400 720 Climbing Fort Worth Center
07:43AM 33.1947 -99.1661 295° West 445 512 40,000 300 Climbing Fort Worth Center
07:44AM 33.2428 -99.3036 293° West 450 518 40,000  Level Fort Worth Center
07:45AM 33.2931 -99.4314 295° West 456 525 40,000  Level Fort Worth Center
07:46AM 33.3428 -99.5692 293° West 456 525 40,000  Level Fort Worth Center
07:47AM 33.3925 -99.7075 293° West 461 531 40,000  Level Fort Worth Center
07:48AM 33.4464 -99.8481 295° West 461 531 40,000  Level Fort Worth Center
07:49AM 33.4978 -99.9892 294° West 461 531 40,000  Level Fort Worth Center
07:50AM 33.5492 -100.1278 294° West 461 531 40,000  Level Fort Worth Center
07:51AM 33.6003 -100.2689 294° West 461 531 40,000  Level Fort Worth Center
07:52AM 33.6492 -100.4103 293° West 461 531 40,000  Level Fort Worth Center
07:53AM 33.7000 -100.5467 294° West 461 531 40,000  Level Fort Worth Center
07:54AM 33.7464 -100.6858 292° West 461 531 40,000  Level Fort Worth Center
07:55AM 33.7972 -100.8228 294° West 453 521 40,000  Level Fort Worth Center
07:56AM 33.8456 -100.9572 293° West 448 516 40,000  Level Fort Worth Center
07:57AM 33.8997 -101.1044 294° West 443 510 40,000  Level Fort Worth Center
07:58AM 33.9478 -101.2442 293° West 443 510 40,000  Level Fort Worth Center
07:59AM 33.9919 -101.3689 293° West 443 510 40,000  Level Fort Worth Center
08:00AM 34.0456 -101.5167 294° West 443 510 40,000  Level Fort Worth Center
08:01AM 34.0892 -101.6417 293° West 437 503 40,000  Level Fort Worth Center
08:02AM 34.1403 -101.7947 292° West 443 510 40,000  Level Fort Worth Center
08:04AM 34.2044 -101.9850 292° West 443 510 40,000  Level Albuquerque Center
08:05AM 34.2517 -102.1203 293° West 439 505 40,000  Level Albuquerque Center
08:06AM 34.2986 -102.2575 293° West 439 505 40,000  Level Albuquerque Center
08:07AM 34.3444 -102.3922 292° West 436 502 40,000  Level Albuquerque Center
08:08AM 34.3911 -102.5286 293° West 435 501 40,000  Level Albuquerque Center
08:09AM 34.4453 -102.6906 292° West 433 498 40,000  Level Albuquerque Center
08:10AM 34.4908 -102.8258 292° West 433 498 40,000  Level Albuquerque Center
08:11AM 34.5136 -102.9594 282° West 440 506 40,000  Level Albuquerque Center
08:12AM 34.5367 -103.1056 281° West 438 504 40,000  Level Albuquerque Center
08:13AM 34.5594 -103.2544 281° West 442 509 40,000  Level Albuquerque Center
08:14AM 34.5811 -103.4050 280° West 446 513 40,000  Level Albuquerque Center
08:15AM 34.6031 -103.5511 280° West 441 507 40,000 -300 Level Albuquerque Center
08:16AM 34.6244 -103.6931 280° West 429 494 39,500 -780 Descending Albuquerque Center
08:17AM 34.6447 -103.8317 280° West 416 479 38,500 -1,020 Descending Albuquerque Center
08:18AM 34.6639 -103.9639 280° West 401 461 37,500 -960 Descending Albuquerque Center
08:19AM 34.6836 -104.1008 280° West 403 464 36,600 -780 Descending Albuquerque Center
08:20AM 34.7031 -104.2386 280° West 407 468 36,000 -300 Descending Albuquerque Center
08:21AM 34.7231 -104.3747 280° West 405 466 36,000  Level Albuquerque Center
08:22AM 34.7414 -104.5094 279° West 401 461 36,000  Level Albuquerque Center
08:23AM 34.7608 -104.6447 280° West 401 461 36,000 -420 Level Albuquerque Center
08:24AM 34.7797 -104.7792 280° West 399 459 35,200 -1,020 Descending Albuquerque Center
08:25AM 34.7983 -104.9097 280° West 392 451 34,000 -600 Descending Albuquerque Center
08:26AM 34.8169 -105.0417 280° West 391 450 34,000 -1,020 Level Albuquerque Center
08:27AM 34.8356 -105.1792 279° West 403 464 32,000 -2,880 Descending Albuquerque Center
08:28AM 34.8553 -105.3236 279° West 421 484 28,200 -3,360 Descending Albuquerque Center
08:29AM 34.8753 -105.4725 279° West 436 502 25,300 -2,580 Descending Albuquerque Center
08:30AM 34.8933 -105.6139 279° West 424 488 23,000 -2,220 Descending Albuquerque Center
08:31AM 34.9122 -105.7478 280° West 404 465 20,900 -1,980 Descending Albuquerque Center
08:32AM 34.9217 -105.8358 277° West 380 437 19,700 -1,800 Descending Albuquerque Center
08:33AM 34.9353 -105.9592 278° West 363 418 17,900 -1,560 Descending Albuquerque Center
08:34AM 34.9519 -106.0742 280° West 347 399 16,600 -1,500 Descending Albuquerque Center
08:35AM 34.9483 -106.1864 268° West 332 382 14,900 -1,860 Descending Albuquerque Center
08:36AM 34.9358 -106.2961 262° West 324 373 12,900 -2,460 Descending Albuquerque Center
08:37AM 34.9261 -106.4206 265° West 348 400 10,000 -1,440 Descending Albuquerque Center
08:38AM 34.9194 -106.5283 266° West 299 344 10,000 -600 Level Albuquerque Center
08:39AM 34.9150 -106.6256 267° West 256 295 8,800 -780 Descending Albuquerque Center
08:40AM 34.9292 -106.6942 284° West 188 216 8,400 -960 Descending Albuquerque Center
08:41AM 34.9675 -106.7053 347° North 158 182 7,000 -1,200 Descending Albuquerque Center
08:42AM 34.9944 -106.6644 51° Northeast 150 173 6,100 -780 Descending Albuquerque Center
08:43AM 35.0322 -106.6175 45° Northeast 159 183 5,300 -660 Descending Albuquerque Center
08:45AM 35.0333 -106.6000 90° East  Level FlightAware Approximate